KNGU

Norfolk NS (Chambers Field) Airport

Norfolk, Virginia, USA
METAR KNGU 182259Z 00000KT 10SM SCT280 03/M02 A3019 RMK AO2 SLP222 T00281022
Observed Flight Rules
Dec-18 @ 22:59 UTC (an hour ago) Visual Flight Rules
Visibility Clouds
10 miles
  • Scattered at 28,000' AGL
Temperatures Readings
Current 3°C / 37°F
Dewpoint -2°C / 28°F
Humidity 70%
Altimeter 30.19" Hg
Pressure 1022.2 hPa
Elevation 5
METAR KNGU 182259Z 00000KT 10SM SCT280 03/M02 A3019 RMK AO2 SLP222 T00281022
Observed Flight Rules
Dec-18 @ 22:59 UTC
(an hour ago)
VFR
Clouds
  • Scattered at 28,000' AGL
Temperature Dewpoint
3°C / 37°F -2°C / 28°F
Humidity Altimeter Pressure
70% 30.19" Hg 1022.2 hPa